createdAt,value
2022-11-21T00:00:29.700Z,25.43
2022-11-21T00:02:59.288Z,26.60
2022-11-21T00:05:26.248Z,23.47
2022-11-21T00:07:53.595Z,24.17
2022-11-21T00:10:20.537Z,26.03
2022-11-21T00:12:47.595Z,23.87
2022-11-21T00:15:14.556Z,23.93
2022-11-21T00:17:43.379Z,25.13
2022-11-21T00:20:10.873Z,21.67
2022-11-21T00:22:38.246Z,20.27
2022-11-21T00:25:06.115Z,23.40
2022-11-21T00:27:33.056Z,22.17
2022-11-21T00:29:59.905Z,21.83
2022-11-21T00:32:27.132Z,21.27
2022-11-21T00:34:55.313Z,21.30
2022-11-21T00:37:22.513Z,22.43
2022-11-21T00:39:49.431Z,22.87
2022-11-21T00:42:16.615Z,36.03
2022-11-21T00:44:43.563Z,22.10
2022-11-21T00:47:10.756Z,23.23
2022-11-21T00:49:37.607Z,19.97
2022-11-21T00:52:06.107Z,26.53
2022-11-21T00:54:33.027Z,43.30
2022-11-21T00:57:00.515Z,51.40
2022-11-21T00:59:27.436Z,30.93
2022-11-21T01:01:54.690Z,22.83
2022-11-21T01:04:21.766Z,22.30
2022-11-21T01:06:49.215Z,22.70
2022-11-21T01:09:17.557Z,23.17
2022-11-21T01:11:44.781Z,21.70
2022-11-21T01:14:11.689Z,23.27
2022-11-21T01:16:38.598Z,23.43
2022-11-21T01:19:05.976Z,26.20
2022-11-21T01:21:33.488Z,24.03
2022-11-21T01:24:01.692Z,25.87
2022-11-21T01:26:31.854Z,23.83
2022-11-21T01:28:59.139Z,25.57
2022-11-21T01:31:28.102Z,25.07
2022-11-21T01:33:56.478Z,25.90
2022-11-21T01:36:26.038Z,24.43
2022-11-21T01:38:54.519Z,23.93
2022-11-21T01:41:24.157Z,25.43
2022-11-21T01:43:53.576Z,22.17
2022-11-21T01:46:22.047Z,22.87
2022-11-21T01:48:54.135Z,22.30
2022-11-21T01:51:25.687Z,28.50
2022-11-21T01:53:57.318Z,26.90
2022-11-21T01:56:25.569Z,26.43
2022-11-21T01:58:58.383Z,26.17
2022-11-21T02:01:25.374Z,27.77
2022-11-21T02:03:55.236Z,25.93
2022-11-21T02:06:23.239Z,27.13
2022-11-21T02:08:50.957Z,28.47
2022-11-21T02:11:26.394Z,24.13
2022-11-21T02:13:56.308Z,26.23
2022-11-21T02:16:24.550Z,26.17
2022-11-21T02:18:51.867Z,25.30
2022-11-21T02:21:27.270Z,28.23
2022-11-21T02:24:01.179Z,27.37
2022-11-21T02:26:30.683Z,27.17
2022-11-21T02:28:58.294Z,27.37
2022-11-21T02:31:25.266Z,30.43
2022-11-21T02:33:52.603Z,26.63
2022-11-21T02:36:39.259Z,27.93
2022-11-21T02:39:07.717Z,24.73
2022-11-21T02:41:41.410Z,25.13
2022-11-21T02:44:13.312Z,26.43
2022-11-21T02:46:49.470Z,26.60
2022-11-21T02:49:21.906Z,26.53
2022-11-21T02:51:49.348Z,26.57
2022-11-21T02:54:16.252Z,29.17
2022-11-21T02:56:44.622Z,28.17
2022-11-21T02:59:12.013Z,26.53
2022-11-21T03:01:38.950Z,30.40
2022-11-21T03:04:06.274Z,25.83
2022-11-21T03:06:33.145Z,31.00
2022-11-21T03:09:00.327Z,27.53
2022-11-21T03:11:27.239Z,32.10
2022-11-21T03:13:55.710Z,24.80
2022-11-21T03:16:22.887Z,28.03
2022-11-21T03:18:50.050Z,28.37
2022-11-21T03:21:17.140Z,26.53
2022-11-21T03:23:44.084Z,28.97
2022-11-21T03:26:10.902Z,29.67
2022-11-21T03:28:38.129Z,29.47
2022-11-21T03:31:06.354Z,25.93
2022-11-21T03:33:33.574Z,25.07
2022-11-21T03:36:00.438Z,28.50
2022-11-21T03:38:27.346Z,26.73
2022-11-21T03:40:54.273Z,30.83
2022-11-21T03:43:21.497Z,31.10
2022-11-21T03:45:48.392Z,31.50
2022-11-21T03:48:16.688Z,35.23
2022-11-21T03:50:44.385Z,34.67
2022-11-21T03:53:11.589Z,29.40
2022-11-21T03:55:38.545Z,31.80
2022-11-21T03:58:05.902Z,31.80
2022-11-21T04:00:33.207Z,31.67
2022-11-21T04:03:00.143Z,35.27
2022-11-21T04:05:28.833Z,33.00
2022-11-21T04:07:56.108Z,32.53
2022-11-21T04:10:26.183Z,30.67
2022-11-21T04:12:53.156Z,33.00
2022-11-21T04:15:20.350Z,33.60
2022-11-21T04:17:47.268Z,31.67
2022-11-21T04:20:15.421Z,34.83
2022-11-21T04:22:44.209Z,32.70
2022-11-21T04:25:11.881Z,32.97
2022-11-21T04:27:38.859Z,36.37
2022-11-21T04:30:06.857Z,34.90
2022-11-21T04:32:33.840Z,34.27
2022-11-21T04:35:01.140Z,38.50
2022-11-21T04:37:28.051Z,34.80
2022-11-21T04:39:56.615Z,33.87
2022-11-21T04:42:24.280Z,35.07
2022-11-21T04:44:51.636Z,35.60
2022-11-21T04:47:18.891Z,35.10
2022-11-21T04:49:46.033Z,41.37
2022-11-21T04:52:12.974Z,36.83
2022-11-21T04:54:40.222Z,35.53
2022-11-21T04:57:08.909Z,40.33
2022-11-21T04:59:36.098Z,41.90
2022-11-21T05:02:03.747Z,38.93
2022-11-21T05:04:30.696Z,36.70
2022-11-21T05:06:58.007Z,39.47
2022-11-21T05:09:24.930Z,38.27
2022-11-21T05:12:10.753Z,39.93
2022-11-21T05:14:39.037Z,39.30
2022-11-21T05:17:06.266Z,37.53
2022-11-21T05:19:33.266Z,43.20
2022-11-21T05:22:00.459Z,43.80
2022-11-21T05:24:27.514Z,43.93
2022-11-21T05:26:55.282Z,42.93
2022-11-21T05:29:27.781Z,43.33
2022-11-21T05:31:56.892Z,39.27
2022-11-21T05:34:23.770Z,42.70
2022-11-21T05:36:57.373Z,41.77
2022-11-21T05:39:24.307Z,46.00
2022-11-21T05:41:51.438Z,42.63
2022-11-21T05:44:18.792Z,43.83
2022-11-21T05:46:46.406Z,45.17
2022-11-21T05:49:14.847Z,46.33
2022-11-21T05:51:42.146Z,44.80
2022-11-21T05:54:13.433Z,45.20
2022-11-21T05:56:40.922Z,45.33
2022-11-21T05:59:10.086Z,43.60
2022-11-21T06:01:56.395Z,45.80
2022-11-21T06:04:24.739Z,49.43
2022-11-21T06:06:52.153Z,49.07
2022-11-21T06:09:19.082Z,48.27
2022-11-21T06:11:46.488Z,46.80
2022-11-21T06:14:13.368Z,47.57
2022-11-21T06:16:40.705Z,47.80
2022-11-21T06:19:07.699Z,47.60
2022-11-21T06:21:37.659Z,48.27
2022-11-21T06:24:05.587Z,54.03
2022-11-21T06:26:32.860Z,52.00
2022-11-21T06:28:59.820Z,51.80
2022-11-21T06:31:27.743Z,52.80
2022-11-21T06:33:56.020Z,54.40
2022-11-21T06:36:23.757Z,51.93
2022-11-21T06:38:53.648Z,53.10
2022-11-21T06:41:23.579Z,55.23
2022-11-21T06:43:50.703Z,54.10
2022-11-21T06:46:18.763Z,59.23
2022-11-21T06:48:46.118Z,52.90
2022-11-21T06:51:17.135Z,56.00
2022-11-21T06:53:44.610Z,52.87
2022-11-21T06:56:13.102Z,55.60
2022-11-21T06:58:40.463Z,54.37
2022-11-21T07:01:09.496Z,53.10
2022-11-21T07:03:37.286Z,55.03
2022-11-21T07:06:05.294Z,56.47
2022-11-21T07:08:34.188Z,57.13
2022-11-21T07:13:50.818Z,48.43
2022-11-21T07:16:17.826Z,51.43
2022-11-21T07:18:45.517Z,52.80
2022-11-21T07:21:13.431Z,57.10
2022-11-21T07:23:40.536Z,57.33
2022-11-21T07:26:09.939Z,53.43
2022-11-21T07:28:37.096Z,52.50
2022-11-21T07:31:11.712Z,54.23
2022-11-21T07:33:40.954Z,58.77
2022-11-21T07:36:08.051Z,56.43
2022-11-21T07:38:36.433Z,54.83
2022-11-21T07:41:03.391Z,53.97
2022-11-21T07:43:30.796Z,56.83
2022-11-21T07:45:57.747Z,51.87
2022-11-21T07:48:26.268Z,55.67
2022-11-21T07:50:53.278Z,53.40
2022-11-21T07:53:20.663Z,56.83
2022-11-21T07:55:47.581Z,56.40
2022-11-21T07:58:17.193Z,56.40
2022-11-21T08:00:44.258Z,49.63
2022-11-21T08:03:12.651Z,49.30
2022-11-21T08:05:44.878Z,47.97
2022-11-21T08:08:12.922Z,48.20
2022-11-21T08:10:41.913Z,51.80
2022-11-21T08:13:09.127Z,49.47
2022-11-21T08:15:36.635Z,52.13
2022-11-21T08:18:08.594Z,49.23
2022-11-21T08:20:35.813Z,51.10
2022-11-21T08:23:04.417Z,52.17
2022-11-21T08:25:31.458Z,51.87
2022-11-21T08:27:59.531Z,47.63
2022-11-21T08:30:26.720Z,53.30
2022-11-21T08:32:53.679Z,52.40
2022-11-21T08:35:20.672Z,49.23
2022-11-21T08:37:48.003Z,49.40
2022-11-21T08:40:16.730Z,46.27
2022-11-21T08:42:43.935Z,47.30
2022-11-21T08:45:11.505Z,45.03
2022-11-21T08:47:38.487Z,44.70
2022-11-21T08:50:09.079Z,49.70
2022-11-21T08:52:37.649Z,50.30
2022-11-21T08:55:05.256Z,44.87
2022-11-21T08:57:38.307Z,45.13
2022-11-21T09:00:07.231Z,44.83
2022-11-21T09:02:34.866Z,38.77
2022-11-21T09:05:02.095Z,43.67
2022-11-21T09:07:29.123Z,26.30
2022-11-21T09:09:56.119Z,41.43
2022-11-21T09:12:23.497Z,39.97
2022-11-21T09:15:10.501Z,42.53
2022-11-21T09:17:55.959Z,42.77
2022-11-21T09:20:23.113Z,37.17
2022-11-21T09:22:50.200Z,33.63
2022-11-21T09:25:17.370Z,73.73
2022-11-21T09:27:44.359Z,38.67
2022-11-21T09:30:13.597Z,37.57
2022-11-21T09:32:40.956Z,39.67
2022-11-21T09:35:11.983Z,39.80
2022-11-21T09:37:39.138Z,37.00
2022-11-21T09:40:07.639Z,34.43
2022-11-21T09:42:57.773Z,36.90
2022-11-21T09:45:31.285Z,38.97
2022-11-21T09:47:58.686Z,32.40
2022-11-21T09:50:31.044Z,30.57
2022-11-21T09:53:03.380Z,25.53
2022-11-21T09:55:39.905Z,26.67
2022-11-21T09:58:18.799Z,29.33
2022-11-21T10:00:47.122Z,26.03
2022-11-21T10:03:17.953Z,27.13
2022-11-21T10:05:53.596Z,21.00
2022-11-21T10:08:30.106Z,22.90
2022-11-21T10:11:07.384Z,21.87
2022-11-21T10:13:53.109Z,21.37
2022-11-21T10:16:26.581Z,22.10
2022-11-21T10:19:21.207Z,22.17
2022-11-21T10:22:15.092Z,19.80
2022-11-21T10:24:53.702Z,20.60
2022-11-21T10:27:29.978Z,21.90
2022-11-21T10:30:02.471Z,17.87
2022-11-21T10:32:36.395Z,20.37
2022-11-21T10:35:14.105Z,23.10
2022-11-21T10:37:47.029Z,20.40
2022-11-21T10:40:26.203Z,23.07
2022-11-21T10:42:58.614Z,19.57
2022-11-21T10:45:25.971Z,19.60
2022-11-21T10:47:54.705Z,20.67
2022-11-21T10:50:50.619Z,21.50
2022-11-21T10:53:38.324Z,20.50
2022-11-21T10:56:08.939Z,24.50
2022-11-21T10:58:42.341Z,29.77
2022-11-21T11:01:24.467Z,23.63
2022-11-21T11:04:33.186Z,28.03
2022-11-21T11:07:21.641Z,25.07
2022-11-21T11:09:48.729Z,23.60
2022-11-21T11:12:24.110Z,21.90
2022-11-21T11:14:52.548Z,22.10
2022-11-21T11:17:28.314Z,18.70
2022-11-21T11:20:06.146Z,18.97
2022-11-21T11:22:33.765Z,24.17
2022-11-21T11:25:05.249Z,24.77
2022-11-21T11:27:32.101Z,19.70
2022-11-21T11:30:07.224Z,14.67
2022-11-21T11:32:39.988Z,13.73
2022-11-21T11:35:21.988Z,14.07
2022-11-21T11:37:57.564Z,13.10
2022-11-21T11:40:29.832Z,22.33
2022-11-21T11:43:32.926Z,15.00
2022-11-21T11:46:32.994Z,12.43
2022-11-21T11:49:19.927Z,13.73
2022-11-21T11:51:54.103Z,15.97
2022-11-21T11:54:24.675Z,15.77
2022-11-21T11:56:51.729Z,12.20
2022-11-21T11:59:24.187Z,11.20
2022-11-21T12:01:56.480Z,12.73
2022-11-21T12:04:25.154Z,12.33
2022-11-21T12:09:52.382Z,14.93
2022-11-21T12:12:31.736Z,11.20
2022-11-21T12:15:28.311Z,10.73
2022-11-21T12:18:17.330Z,10.77
2022-11-21T12:20:55.596Z,10.33
2022-11-21T12:23:28.020Z,11.77
2022-11-21T12:26:06.023Z,10.47
2022-11-21T12:28:41.871Z,9.57
2022-11-21T12:31:15.287Z,9.23
2022-11-21T12:33:53.842Z,11.50
2022-11-21T12:36:28.671Z,12.67
2022-11-21T12:39:13.345Z,9.87
2022-11-21T12:42:08.150Z,15.27
2022-11-21T12:44:52.371Z,10.43
2022-11-21T12:47:56.785Z,15.00
2022-11-21T12:50:48.821Z,12.33
2022-11-21T12:53:45.007Z,12.87
2022-11-21T12:56:19.299Z,35.93
2022-11-21T12:58:52.286Z,23.03
2022-11-21T13:01:28.106Z,8.00
2022-11-21T13:04:05.696Z,8.63
2022-11-21T13:06:38.123Z,8.13
2022-11-21T13:09:08.225Z,9.67
2022-11-21T13:11:59.466Z,8.87
2022-11-21T13:14:36.999Z,69.10
2022-11-21T13:17:20.782Z,12.17
2022-11-21T13:19:53.434Z,9.93
2022-11-21T13:22:50.004Z,9.33
2022-11-21T13:25:39.167Z,28.10
2022-11-21T13:28:39.201Z,12.37
2022-11-21T13:31:30.129Z,10.87
2022-11-21T13:33:57.663Z,14.17
2022-11-21T13:36:41.975Z,16.00
2022-11-21T13:39:28.932Z,15.33
2022-11-21T13:42:20.698Z,16.27
2022-11-21T13:44:51.511Z,20.47
2022-11-21T13:47:55.752Z,32.90
2022-11-21T13:50:38.343Z,19.57
2022-11-21T13:53:21.834Z,23.00
2022-11-21T13:55:57.920Z,18.67
2022-11-21T13:58:36.976Z,20.10
2022-11-21T14:01:21.055Z,21.73
2022-11-21T14:04:26.424Z,28.70
2022-11-21T14:06:53.905Z,26.27
2022-11-21T14:09:27.875Z,59.97
2022-11-21T14:11:58.115Z,21.87
2022-11-21T14:14:29.873Z,18.53
2022-11-21T14:17:16.732Z,18.90
2022-11-21T14:19:45.815Z,19.53
2022-11-21T14:22:24.355Z,18.40
2022-11-21T14:24:52.694Z,25.50
2022-11-21T14:27:26.451Z,21.77
2022-11-21T14:29:53.422Z,24.60
2022-11-21T14:32:26.508Z,18.60
2022-11-21T14:35:07.850Z,19.63
2022-11-21T14:37:35.995Z,17.30
2022-11-21T14:40:05.052Z,20.87
2022-11-21T14:42:37.463Z,17.67
2022-11-21T14:45:15.105Z,15.87
2022-11-21T14:47:47.877Z,18.93
2022-11-21T14:50:26.574Z,21.37
2022-11-21T14:52:57.425Z,19.07
2022-11-21T14:55:30.946Z,16.80
2022-11-21T14:58:00.238Z,18.47
2022-11-21T15:00:57.956Z,19.63
2022-11-21T15:03:20.712Z,19.87
2022-11-21T15:06:07.367Z,19.97
2022-11-21T15:11:34.261Z,22.67
2022-11-21T15:14:15.598Z,23.83
2022-11-21T15:16:44.946Z,22.10
2022-11-21T15:19:12.509Z,24.27
2022-11-21T15:21:46.433Z,23.57
2022-11-21T15:24:17.761Z,27.70
2022-11-21T15:26:44.965Z,27.67
2022-11-21T15:29:20.850Z,27.50
2022-11-21T15:32:02.656Z,26.57
2022-11-21T15:34:37.142Z,22.63
2022-11-21T15:37:14.929Z,23.97
2022-11-21T15:39:43.863Z,24.73
2022-11-21T15:42:37.843Z,25.33
2022-11-21T15:45:22.739Z,25.07
2022-11-21T15:47:49.868Z,25.73
2022-11-21T15:50:17.636Z,38.67
2022-11-21T15:52:48.264Z,25.43
2022-11-21T15:55:20.365Z,25.10
2022-11-21T15:57:47.266Z,23.57
2022-11-21T16:00:15.778Z,21.90
2022-11-21T16:02:42.683Z,22.13
2022-11-21T16:05:12.584Z,24.57
2022-11-21T16:07:39.701Z,20.80
2022-11-21T16:10:17.995Z,22.40
2022-11-21T16:12:50.240Z,21.47
2022-11-21T16:15:17.315Z,24.00
2022-11-21T16:17:45.641Z,22.17
2022-11-21T16:20:13.560Z,20.73
2022-11-21T16:22:46.904Z,20.03
2022-11-21T16:25:16.133Z,26.57
2022-11-21T16:27:43.086Z,33.37
2022-11-21T16:30:10.979Z,17.67
2022-11-21T16:32:37.894Z,20.63
2022-11-21T16:35:06.238Z,16.70
2022-11-21T16:37:33.542Z,18.97
2022-11-21T16:40:02.063Z,19.60
2022-11-21T16:42:30.430Z,22.77
2022-11-21T16:44:57.830Z,19.33
2022-11-21T16:47:24.733Z,20.13
2022-11-21T16:49:51.931Z,52.97
2022-11-21T16:52:18.904Z,28.40
2022-11-21T16:54:47.227Z,36.97
2022-11-21T16:57:14.288Z,55.53
2022-11-21T16:59:42.888Z,44.83
2022-11-21T17:02:12.556Z,93.10
2022-11-21T17:04:39.616Z,55.53
2022-11-21T17:07:06.901Z,23.77
2022-11-21T17:09:33.867Z,24.30
2022-11-21T17:12:01.106Z,46.57
2022-11-21T17:14:29.440Z,40.23
2022-11-21T17:17:00.363Z,23.03
2022-11-21T17:19:27.267Z,27.07
2022-11-21T17:21:54.201Z,21.83
2022-11-21T17:24:21.058Z,17.87
2022-11-21T17:26:48.408Z,25.00
2022-11-21T17:29:15.389Z,20.77
2022-11-21T17:31:43.222Z,24.67
2022-11-21T17:34:11.553Z,18.47
2022-11-21T17:36:38.892Z,48.00
2022-11-21T17:39:05.818Z,78.57
2022-11-21T17:41:32.789Z,31.53
2022-11-21T17:44:00.974Z,38.10
2022-11-21T17:46:28.655Z,30.43
2022-11-21T17:48:58.790Z,34.03
2022-11-21T17:51:29.748Z,34.37
2022-11-21T17:53:56.981Z,52.43
2022-11-21T17:56:26.177Z,63.30
2022-11-21T17:58:53.331Z,46.13
2022-11-21T18:01:20.962Z,37.40
2022-11-21T18:03:49.264Z,24.37
2022-11-21T18:06:17.660Z,26.43
2022-11-21T18:08:48.326Z,20.47
2022-11-21T18:11:18.573Z,27.87
2022-11-21T18:13:46.098Z,28.57
2022-11-21T18:16:15.296Z,35.03
2022-11-21T18:18:42.734Z,33.90
2022-11-21T18:21:12.076Z,24.90
2022-11-21T18:23:39.505Z,24.80
2022-11-21T18:26:11.065Z,23.77
2022-11-21T18:28:37.945Z,26.77
2022-11-21T18:31:06.188Z,38.67
2022-11-21T18:33:33.418Z,39.50
2022-11-21T18:36:00.585Z,31.87
2022-11-21T18:38:48.112Z,29.10
2022-11-21T18:41:20.240Z,28.60
2022-11-21T18:43:50.493Z,22.23
2022-11-21T18:46:17.487Z,26.83
2022-11-21T18:49:02.037Z,23.97
2022-11-21T18:51:31.941Z,21.23
2022-11-21T18:54:03.974Z,20.50
2022-11-21T18:56:32.465Z,24.10
2022-11-21T18:59:01.995Z,24.47
2022-11-21T19:01:30.465Z,25.97
2022-11-21T19:03:57.706Z,36.50
2022-11-21T19:06:26.425Z,23.83
2022-11-21T19:08:55.575Z,23.13
2022-11-21T19:11:24.844Z,23.43
2022-11-21T19:13:54.064Z,23.13
2022-11-21T19:16:24.634Z,25.57
2022-11-21T19:19:12.048Z,35.90
2022-11-21T19:21:42.159Z,28.00
2022-11-21T19:24:13.322Z,43.37
2022-11-21T19:26:41.488Z,31.37
2022-11-21T19:29:10.297Z,26.47
2022-11-21T19:31:42.943Z,36.87
2022-11-21T19:34:12.212Z,26.90
2022-11-21T19:36:39.426Z,29.77
2022-11-21T19:39:07.061Z,25.43
2022-11-21T19:41:34.286Z,33.43
2022-11-21T19:44:01.896Z,23.87
2022-11-21T19:46:31.949Z,22.17
2022-11-21T19:48:59.308Z,20.23
2022-11-21T19:51:29.833Z,25.37
2022-11-21T19:53:56.777Z,24.80
2022-11-21T19:56:25.380Z,30.73
2022-11-21T19:58:53.043Z,31.13
2022-11-21T20:01:21.465Z,30.47
2022-11-21T20:03:52.541Z,26.03
2022-11-21T20:06:22.144Z,32.13
2022-11-21T20:08:50.408Z,27.10
2022-11-21T20:11:17.985Z,27.93
2022-11-21T20:13:45.849Z,28.13
2022-11-21T20:16:37.455Z,30.67
2022-11-21T20:19:09.129Z,27.67
2022-11-21T20:21:37.229Z,28.07
2022-11-21T20:24:05.684Z,28.97
2022-11-21T20:26:33.575Z,29.73
2022-11-21T20:29:01.231Z,29.03
2022-11-21T20:31:30.037Z,32.20
2022-11-21T20:34:00.347Z,34.90
2022-11-21T20:36:30.658Z,38.37
2022-11-21T20:38:59.211Z,35.53
2022-11-21T20:41:28.280Z,38.07
2022-11-21T20:44:46.640Z,42.37
2022-11-21T20:46:43.443Z,36.93
2022-11-21T20:49:10.979Z,38.53
2022-11-21T20:54:26.272Z,35.53
2022-11-21T20:56:53.359Z,37.80
2022-11-21T20:59:20.588Z,41.47
2022-11-21T21:01:47.492Z,46.73
2022-11-21T21:04:14.815Z,50.67
2022-11-21T21:06:43.002Z,46.67
2022-11-21T21:09:09.833Z,51.37
2022-11-21T21:11:51.456Z,52.67
2022-11-21T21:14:19.836Z,61.30
2022-11-21T21:16:46.760Z,65.57
2022-11-21T21:19:13.748Z,60.80
2022-11-21T21:21:42.198Z,69.83
2022-11-21T21:24:10.814Z,67.80
2022-11-21T21:26:42.722Z,68.33
2022-11-21T21:29:13.537Z,68.63
2022-11-21T21:31:48.577Z,75.73
2022-11-21T21:34:18.007Z,70.47
2022-11-21T21:36:46.358Z,73.60
2022-11-21T21:39:13.346Z,81.13
2022-11-21T21:41:44.861Z,84.67
2022-11-21T21:44:12.145Z,75.90
2022-11-21T21:46:39.437Z,76.03
2022-11-21T21:49:06.336Z,79.43
2022-11-21T21:51:33.396Z,79.97
2022-11-21T21:54:01.833Z,81.17
2022-11-21T21:56:29.931Z,80.07
2022-11-21T21:58:57.813Z,88.70
2022-11-21T22:01:26.774Z,88.10
2022-11-21T22:03:54.690Z,89.80
2022-11-21T22:06:22.475Z,99.10
2022-11-21T22:08:50.300Z,101.77
2022-11-21T22:11:20.450Z,98.33
2022-11-21T22:13:48.769Z,92.70
2022-11-21T22:16:16.049Z,106.30
2022-11-21T22:18:43.112Z,108.73
2022-11-21T22:21:14.729Z,94.07
2022-11-21T22:23:56.466Z,92.40
2022-11-21T22:26:30.011Z,92.33
2022-11-21T22:28:57.027Z,85.23
2022-11-21T22:31:23.977Z,89.83
2022-11-21T22:33:50.857Z,87.70
2022-11-21T22:36:19.231Z,71.87
2022-11-21T22:38:46.515Z,67.73
2022-11-21T22:41:15.874Z,76.70
2022-11-21T22:43:48.709Z,72.00
2022-11-21T22:46:16.436Z,69.13
2022-11-21T22:48:43.371Z,69.63
2022-11-21T22:51:12.607Z,74.67
2022-11-21T22:53:40.436Z,70.13
2022-11-21T22:56:10.069Z,75.77
2022-11-21T22:58:38.613Z,80.00
2022-11-21T23:01:12.135Z,69.33
2022-11-21T23:03:39.248Z,80.13
2022-11-21T23:06:07.919Z,82.10
2022-11-21T23:08:35.597Z,79.03
2022-11-21T23:11:04.016Z,81.17
2022-11-21T23:13:31.543Z,70.27
2022-11-21T23:15:58.806Z,71.87
2022-11-21T23:18:27.206Z,80.73
2022-11-21T23:20:54.170Z,79.90
2022-11-21T23:23:22.653Z,73.23
2022-11-21T23:25:49.753Z,82.93
2022-11-21T23:28:16.603Z,74.37
2022-11-21T23:30:46.300Z,69.67
2022-11-21T23:33:13.678Z,67.93
2022-11-21T23:35:42.512Z,68.70
2022-11-21T23:38:09.409Z,66.97
2022-11-21T23:40:36.840Z,60.83
2022-11-21T23:43:03.849Z,66.60
2022-11-21T23:45:31.234Z,63.93
2022-11-21T23:47:58.096Z,59.57
2022-11-21T23:50:25.665Z,57.93
2022-11-21T23:52:53.899Z,54.80
2022-11-21T23:55:20.825Z,51.30
2022-11-21T23:57:48.793Z,51.10
